Time;durP1;ratioP1;P1;durP2;ratioP2;P2;SDS_P1;SDS_P2;PMS_P1;PMS_P2;Temp;Humidity;BMP_temperature;BMP_pressure;BME280_temperature;BME280_humidity;BME280_pressure;Samples;Min_cycle;Max_cycle;Signal;HPM_P1;HPM_P2
2022/08/09 00:02:06;;;;;;;59.53;3.53;;;;;;;;;;5092991;28;20981;-65
2022/08/09 00:04:33;;;;;;;59.00;3.13;;;;;;;;;;5093094;28;20442;-65
2022/08/09 00:07:00;;;;;;;59.37;3.30;;;;;;;;;;5093078;28;20442;-65
2022/08/09 00:09:28;;;;;;;58.87;3.30;;;;;;;;;;5092680;28;20450;-65
2022/08/09 00:11:55;;;;;;;59.27;3.30;;;;;;;;;;5092603;28;20493;-65
2022/08/09 00:14:24;;;;;;;58.87;3.20;;;;;;;;;;5093035;28;20438;-65
2022/08/09 00:16:51;;;;;;;58.87;3.07;;;;;;;;;;5092931;28;20482;-65
2022/08/09 00:19:18;;;;;;;59.97;3.40;;;;;;;;;;5092512;28;20927;-65
2022/08/09 00:21:45;;;;;;;60.43;3.60;;;;;;;;;;5092703;28;20461;-65
2022/08/09 00:24:12;;;;;;;58.87;3.37;;;;;;;;;;5092601;28;20450;-65
2022/08/09 00:26:39;;;;;;;60.30;3.90;;;;;;;;;;5092826;28;20454;-65
2022/08/09 00:29:06;;;;;;;58.93;3.17;;;;;;;;;;5092252;28;20454;-65
2022/08/09 00:31:35;;;;;;;59.50;3.20;;;;;;;;;;5091504;28;20493;-65
2022/08/09 00:34:02;;;;;;;59.30;3.30;;;;;;;;;;5092473;28;20982;-65
2022/08/09 00:36:29;;;;;;;58.10;2.93;;;;;;;;;;5092465;28;20457;-65
2022/08/09 00:39:06;;;;;;;62.43;3.90;;;;;;;;;;5091956;28;20450;-65
2022/08/09 00:41:33;;;;;;;58.90;2.90;;;;;;;;;;5092487;28;20469;-65
2022/08/09 00:44:00;;;;;;;59.10;3.20;;;;;;;;;;5092494;28;20446;-65
2022/08/09 00:46:28;;;;;;;58.57;3.07;;;;;;;;;;5092330;28;20515;-65
2022/08/09 00:48:56;;;;;;;59.20;3.03;;;;;;;;;;5091806;28;20960;-65
2022/08/09 00:51:23;;;;;;;58.10;2.90;;;;;;;;;;5092061;28;20486;-65
2022/08/09 00:53:50;;;;;;;59.00;3.07;;;;;;;;;;5092164;28;20533;-65
2022/08/09 00:56:17;;;;;;;59.87;3.50;;;;;;;;;;5092348;28;20450;-67
2022/08/09 00:58:45;;;;;;;59.13;3.20;;;;;;;;;;5092065;28;20943;-67
2022/08/09 01:01:13;;;;;;;59.83;3.60;;;;;;;;;;5092142;28;20458;-67
2022/08/09 01:03:42;;;;;;;59.80;3.60;;;;;;;;;;5092144;28;20500;-67
2022/08/09 01:06:13;;;;;;;59.03;3.53;;;;;;;;;;5092381;28;20461;-67
2022/08/09 01:08:44;;;;;;;59.60;3.73;;;;;;;;;;5091930;28;20542;-67
2022/08/09 01:11:18;;;;;;;59.10;3.00;;;;;;;;;;5092036;28;20482;-67
2022/08/09 01:13:50;;;;;;;59.17;3.43;;;;;;;;;;5092036;28;20813;-67
2022/08/09 01:16:18;;;;;;;58.70;3.20;;;;;;;;;;5091950;28;20442;-67
2022/08/09 01:18:46;;;;;;;59.27;3.43;;;;;;;;;;5091593;28;20937;-67
2022/08/09 01:21:19;;;;;;;59.10;3.20;;;;;;;;;;5092048;28;20495;-67
2022/08/09 01:23:54;;;;;;;58.97;3.87;;;;;;;;;;5091999;28;20443;-67
2022/08/09 01:26:23;;;;;;;59.17;3.30;;;;;;;;;;5091879;28;20456;-67
2022/08/09 01:28:53;;;;;;;58.67;3.17;;;;;;;;;;5091465;28;20442;-67
2022/08/09 01:31:21;;;;;;;58.83;3.43;;;;;;;;;;5092074;28;20849;-67
2022/08/09 01:33:49;;;;;;;59.20;3.70;;;;;;;;;;5091954;28;20443;-67
2022/08/09 01:36:19;;;;;;;58.83;3.57;;;;;;;;;;5091852;28;20455;-67
2022/08/09 01:38:48;;;;;;;58.67;3.53;;;;;;;;;;5091451;28;20454;-67
2022/08/09 01:41:16;;;;;;;59.80;3.20;;;;;;;;;;5091554;28;20462;-67
2022/08/09 01:43:45;;;;;;;59.70;4.03;;;;;;;;;;5094056;28;20450;-67
2022/08/09 01:46:15;;;;;;;58.90;3.70;;;;;;;;;;5095885;28;20450;-67
2022/08/09 01:48:42;;;;;;;59.60;4.00;;;;;;;;;;5093930;28;20450;-67
2022/08/09 01:51:10;;;;;;;59.20;3.67;;;;;;;;;;5095506;28;20990;-67
2022/08/09 01:53:37;;;;;;;59.80;3.87;;;;;;;;;;5095554;28;20449;-67
2022/08/09 01:56:05;;;;;;;60.70;3.77;;;;;;;;;;5095455;28;20446;-67
2022/08/09 01:58:33;;;;;;;58.90;3.40;;;;;;;;;;5093888;28;20919;-67
2022/08/09 02:01:01;;;;;;;62.70;4.43;;;;;;;;;;5095337;28;21077;-67
2022/08/09 02:03:31;;;;;;;59.70;3.77;;;;;;;;;;5095476;28;20821;-67
2022/08/09 02:05:59;;;;;;;59.27;4.07;;;;;;;;;;5095461;28;20812;-67
2022/08/09 02:08:27;;;;;;;59.80;4.13;;;;;;;;;;5095060;28;20454;-65
2022/08/09 02:10:56;;;;;;;59.17;3.47;;;;;;;;;;5095167;28;20466;-67
2022/08/09 02:13:25;;;;;;;59.57;4.10;;;;;;;;;;5095154;28;20937;-67
2022/08/09 02:15:54;;;;;;;59.73;4.27;;;;;;;;;;5095291;28;20441;-67
2022/08/09 02:18:23;;;;;;;59.80;3.70;;;;;;;;;;5095082;28;20457;-67
2022/08/09 02:20:56;;;;;;;60.07;3.83;;;;;;;;;;5094655;28;20867;-65
2022/08/09 02:23:27;;;;;;;59.53;3.83;;;;;;;;;;5095376;28;20454;-67
2022/08/09 02:25:56;;;;;;;60.40;4.27;;;;;;;;;;5095159;28;20449;-67
2022/08/09 02:28:26;;;;;;;62.60;4.60;;;;;;;;;;5094895;28;20447;-67
2022/08/09 02:30:55;;;;;;;58.37;3.40;;;;;;;;;;5094692;28;20826;-67
2022/08/09 02:33:24;;;;;;;58.80;3.17;;;;;;;;;;5094607;28;20485;-67
2022/08/09 02:35:56;;;;;;;59.90;3.77;;;;;;;;;;5095030;28;20470;-67
2022/08/09 02:38:27;;;;;;;59.10;3.80;;;;;;;;;;5094581;28;20447;-67
2022/08/09 02:40:54;;;;;;;61.60;3.83;;;;;;;;;;5094655;28;20488;-67
2022/08/09 02:43:23;;;;;;;58.90;3.30;;;;;;;;;;5094631;28;20951;-67
2022/08/09 02:45:52;;;;;;;58.77;3.50;;;;;;;;;;5094580;28;20450;-67
2022/08/09 02:48:21;;;;;;;59.77;4.13;;;;;;;;;;5094587;28;20460;-65
2022/08/09 02:50:49;;;;;;;60.27;3.77;;;;;;;;;;5094123;28;20852;-67
2022/08/09 02:53:23;;;;;;;60.10;4.20;;;;;;;;;;5094445;28;20514;-67
2022/08/09 02:55:50;;;;;;;59.20;3.40;;;;;;;;;;5093441;28;20453;-67
2022/08/09 02:58:19;;;;;;;59.27;3.20;;;;;;;;;;5094189;28;20452;-67
2022/08/09 03:00:46;;;;;;;59.17;3.77;;;;;;;;;;5094238;28;20473;-67
2022/08/09 03:03:15;;;;;;;59.30;3.80;;;;;;;;;;5094450;28;20532;-67
2022/08/09 03:05:42;;;;;;;59.40;3.70;;;;;;;;;;5094342;28;20451;-67
2022/08/09 03:08:10;;;;;;;59.57;3.70;;;;;;;;;;5094086;28;20446;-67
2022/08/09 03:10:38;;;;;;;59.40;3.80;;;;;;;;;;5093763;28;20464;-67
2022/08/09 03:13:06;;;;;;;59.17;4.17;;;;;;;;;;5093840;28;20490;-67
2022/08/09 03:15:34;;;;;;;59.33;3.90;;;;;;;;;;5094223;28;20442;-67
2022/08/09 03:18:01;;;;;;;59.47;3.67;;;;;;;;;;5093888;28;20457;-67
2022/08/09 03:20:29;;;;;;;59.00;3.70;;;;;;;;;;5093731;28;20444;-67
2022/08/09 03:22:57;;;;;;;59.20;3.90;;;;;;;;;;5094276;28;20449;-67
2022/08/09 03:25:24;;;;;;;59.83;4.00;;;;;;;;;;5093801;28;20447;-67
2022/08/09 03:27:53;;;;;;;59.37;3.60;;;;;;;;;;5093695;28;20965;-67
2022/08/09 03:30:20;;;;;;;59.40;3.90;;;;;;;;;;5093558;28;20445;-67
2022/08/09 03:32:47;;;;;;;59.47;4.20;;;;;;;;;;5093697;28;20579;-67
2022/08/09 03:35:15;;;;;;;61.57;4.10;;;;;;;;;;5093671;28;20540;-67
2022/08/09 03:37:42;;;;;;;62.60;3.83;;;;;;;;;;5093540;28;20452;-65
2022/08/09 03:40:09;;;;;;;59.70;4.27;;;;;;;;;;5093140;28;20452;-67
2022/08/09 03:42:37;;;;;;;62.00;4.20;;;;;;;;;;5093657;28;20825;-67
2022/08/09 03:45:06;;;;;;;60.77;4.50;;;;;;;;;;5093475;28;20462;-67
2022/08/09 03:47:33;;;;;;;60.40;4.40;;;;;;;;;;5093428;28;20451;-68
2022/08/09 03:50:00;;;;;;;59.67;3.77;;;;;;;;;;5092923;28;20465;-67
2022/08/09 03:52:28;;;;;;;59.77;4.23;;;;;;;;;;5092995;28;20999;-67
2022/08/09 03:54:55;;;;;;;59.40;3.97;;;;;;;;;;5093429;28;20451;-67
2022/08/09 03:57:22;;;;;;;60.10;4.20;;;;;;;;;;5093370;28;20451;-67
2022/08/09 03:59:50;;;;;;;59.90;4.00;;;;;;;;;;5092938;28;20441;-67
2022/08/09 04:02:19;;;;;;;60.67;4.20;;;;;;;;;;5092915;28;20493;-67
2022/08/09 04:04:46;;;;;;;60.27;4.50;;;;;;;;;;5093112;28;20451;-67
2022/08/09 04:07:13;;;;;;;59.37;3.70;;;;;;;;;;5092787;28;20452;-67
2022/08/09 04:09:40;;;;;;;61.13;4.30;;;;;;;;;;5092601;28;20518;-67
2022/08/09 04:12:21;;;;;;;59.07;3.87;;;;;;;;;;5092979;28;20545;-67
2022/08/09 04:14:48;;;;;;;59.50;4.47;;;;;;;;;;5092963;28;20452;-67
2022/08/09 04:17:16;;;;;;;59.60;4.40;;;;;;;;;;5092843;28;20535;-67
2022/08/09 04:19:44;;;;;;;60.37;3.90;;;;;;;;;;5092408;28;20446;-67
2022/08/09 04:22:11;;;;;;;61.70;4.37;;;;;;;;;;5092771;28;20488;-67
2022/08/09 04:24:38;;;;;;;60.17;4.20;;;;;;;;;;5092775;28;20489;-67
2022/08/09 04:27:05;;;;;;;60.17;4.27;;;;;;;;;;5092644;28;20990;-67
2022/08/09 04:29:32;;;;;;;61.30;4.33;;;;;;;;;;5092443;28;20443;-67
2022/08/09 04:32:00;;;;;;;60.50;5.10;;;;;;;;;;5092420;28;20462;-67
2022/08/09 04:34:28;;;;;;;61.07;4.77;;;;;;;;;;5092728;28;20452;-67
2022/08/09 04:36:57;;;;;;;59.43;3.83;;;;;;;;;;5092634;28;20503;-67
2022/08/09 04:39:24;;;;;;;60.10;4.40;;;;;;;;;;5092264;28;20452;-67
2022/08/09 04:41:51;;;;;;;60.10;4.30;;;;;;;;;;5092369;28;20493;-67
2022/08/09 04:44:18;;;;;;;59.30;3.40;;;;;;;;;;5092385;28;20445;-67
2022/08/09 04:46:45;;;;;;;60.13;4.00;;;;;;;;;;5092248;28;20457;-67
2022/08/09 04:49:13;;;;;;;59.20;3.87;;;;;;;;;;5092102;28;20467;-67
2022/08/09 04:51:40;;;;;;;59.30;3.77;;;;;;;;;;5092382;28;20531;-67
2022/08/09 04:54:09;;;;;;;60.10;4.47;;;;;;;;;;5092194;28;20960;-67
2022/08/09 04:56:36;;;;;;;59.60;4.00;;;;;;;;;;5092160;28;20541;-67
2022/08/09 04:59:03;;;;;;;59.83;3.73;;;;;;;;;;5091757;28;20448;-67
2022/08/09 05:01:30;;;;;;;59.67;4.50;;;;;;;;;;5092502;28;20845;-67
2022/08/09 05:03:57;;;;;;;59.10;4.13;;;;;;;;;;5092354;28;20490;-67
2022/08/09 05:06:24;;;;;;;58.43;3.70;;;;;;;;;;5092169;28;20453;-67
2022/08/09 05:08:51;;;;;;;60.43;4.43;;;;;;;;;;5091972;28;20439;-67
2022/08/09 05:11:20;;;;;;;59.20;4.00;;;;;;;;;;5092029;28;20470;-67
2022/08/09 05:13:47;;;;;;;59.00;3.70;;;;;;;;;;5091885;28;20536;-67
2022/08/09 05:16:14;;;;;;;61.30;4.50;;;;;;;;;;5091996;28;20452;-67
2022/08/09 05:18:41;;;;;;;59.47;3.97;;;;;;;;;;5091258;28;20453;-67
2022/08/09 05:21:08;;;;;;;59.07;3.33;;;;;;;;;;5092055;28;20472;-67
2022/08/09 05:23:36;;;;;;;59.20;3.80;;;;;;;;;;5092238;28;20475;-67
2022/08/09 05:26:03;;;;;;;59.10;3.90;;;;;;;;;;5091903;28;20449;-67
2022/08/09 05:28:31;;;;;;;64.10;3.90;;;;;;;;;;5091895;28;20874;-67
2022/08/09 05:30:59;;;;;;;60.10;4.20;;;;;;;;;;5091801;28;20474;-66
2022/08/09 05:33:26;;;;;;;59.87;3.60;;;;;;;;;;5091933;28;20468;-67
2022/08/09 05:35:53;;;;;;;59.07;4.30;;;;;;;;;;5091728;28;20459;-68
2022/08/09 05:38:20;;;;;;;60.50;3.60;;;;;;;;;;5091638;28;20496;-67
2022/08/09 05:40:47;;;;;;;59.23;3.60;;;;;;;;;;5091293;28;20834;-67
2022/08/09 05:43:15;;;;;;;60.67;4.70;;;;;;;;;;5091430;28;21013;-67
2022/08/09 05:45:43;;;;;;;59.53;4.10;;;;;;;;;;5091734;28;20442;-67
2022/08/09 05:48:10;;;;;;;59.17;3.60;;;;;;;;;;5091687;28;20453;-67
2022/08/09 05:50:40;;;;;;;59.27;4.07;;;;;;;;;;5091142;28;20474;-67
2022/08/09 05:53:07;;;;;;;58.60;3.33;;;;;;;;;;5091642;28;20443;-67
2022/08/09 05:55:34;;;;;;;59.57;3.50;;;;;;;;;;5091543;28;20478;-67
2022/08/09 05:58:01;;;;;;;59.30;3.40;;;;;;;;;;5091680;28;20442;-67
2022/08/09 06:00:29;;;;;;;58.57;3.40;;;;;;;;;;5091369;28;20553;-67
2022/08/09 06:02:58;;;;;;;59.03;3.33;;;;;;;;;;5091412;28;20516;-67
2022/08/09 06:05:25;;;;;;;59.27;4.27;;;;;;;;;;5091400;28;20442;-67
2022/08/09 06:07:52;;;;;;;59.30;3.60;;;;;;;;;;5091394;28;20457;-67
2022/08/09 06:10:20;;;;;;;58.90;3.40;;;;;;;;;;5091540;28;20448;-67
2022/08/09 06:12:47;;;;;;;58.87;3.70;;;;;;;;;;5091600;28;20454;-67
2022/08/09 06:15:14;;;;;;;59.37;3.63;;;;;;;;;;5091375;28;20450;-65
2022/08/09 06:17:41;;;;;;;58.63;3.50;;;;;;;;;;5091552;28;20442;-65
2022/08/09 06:20:10;;;;;;;58.87;3.30;;;;;;;;;;5091566;28;20450;-65
2022/08/09 06:22:38;;;;;;;61.73;4.27;;;;;;;;;;5091129;28;21048;-67
2022/08/09 06:25:06;;;;;;;58.90;3.50;;;;;;;;;;5091327;28;20454;-67
2022/08/09 06:27:33;;;;;;;58.70;3.67;;;;;;;;;;5091678;28;20439;-67
2022/08/09 06:30:00;;;;;;;58.80;3.30;;;;;;;;;;5091826;28;20461;-67
2022/08/09 06:32:27;;;;;;;60.07;4.50;;;;;;;;;;5094832;28;20470;-65
2022/08/09 06:34:54;;;;;;;59.57;3.50;;;;;;;;;;5094782;28;20819;-65
2022/08/09 06:37:23;;;;;;;59.40;3.90;;;;;;;;;;5095020;28;20450;-65
2022/08/09 06:39:50;;;;;;;58.60;3.50;;;;;;;;;;5094600;28;20450;-65
2022/08/09 06:42:18;;;;;;;59.90;3.87;;;;;;;;;;5094591;28;20462;-65
2022/08/09 06:44:46;;;;;;;60.00;3.67;;;;;;;;;;5094644;28;20844;-66
2022/08/09 06:47:13;;;;;;;58.67;3.93;;;;;;;;;;5094660;28;20446;-66
2022/08/09 06:49:40;;;;;;;59.67;3.50;;;;;;;;;;5093923;28;20954;-66
2022/08/09 06:52:07;;;;;;;58.67;3.80;;;;;;;;;;5094457;28;20474;-66
2022/08/09 06:54:36;;;;;;;58.70;3.20;;;;;;;;;;5094570;28;20816;-66
2022/08/09 06:57:03;;;;;;;58.60;3.07;;;;;;;;;;5094505;28;20819;-66
2022/08/09 06:59:30;;;;;;;59.07;3.57;;;;;;;;;;5094129;28;20477;-66
2022/08/09 07:01:57;;;;;;;60.23;4.07;;;;;;;;;;5094154;28;20462;-66
2022/08/09 07:04:24;;;;;;;58.97;3.33;;;;;;;;;;5094096;28;20492;-66
2022/08/09 07:06:52;;;;;;;59.90;4.13;;;;;;;;;;5094347;28;20458;-66
2022/08/09 07:09:19;;;;;;;58.57;3.20;;;;;;;;;;5094057;28;20534;-66
2022/08/09 07:11:48;;;;;;;58.67;3.53;;;;;;;;;;5094350;28;20492;-67
2022/08/09 07:14:16;;;;;;;58.97;4.00;;;;;;;;;;5094141;28;20446;-66
2022/08/09 07:16:44;;;;;;;58.53;3.43;;;;;;;;;;5093912;28;20904;-66
2022/08/09 07:19:11;;;;;;;58.90;3.70;;;;;;;;;;5093893;28;20482;-66
2022/08/09 07:21:38;;;;;;;60.47;4.40;;;;;;;;;;5093975;28;20474;-66
2022/08/09 07:24:06;;;;;;;58.90;3.37;;;;;;;;;;5093875;28;20486;-66
2022/08/09 07:26:33;;;;;;;59.30;3.57;;;;;;;;;;5093854;28;20455;-66
2022/08/09 07:29:03;;;;;;;58.37;3.33;;;;;;;;;;5093443;28;20447;-66
2022/08/09 07:31:31;;;;;;;58.70;3.30;;;;;;;;;;5093868;28;20462;-67
2022/08/09 07:33:58;;;;;;;58.97;3.50;;;;;;;;;;5093606;28;20472;-66
2022/08/09 07:36:25;;;;;;;58.90;3.20;;;;;;;;;;5093803;28;20448;-66
2022/08/09 07:38:53;;;;;;;58.90;3.40;;;;;;;;;;5093440;28;20465;-66
2022/08/09 07:41:21;;;;;;;58.07;3.00;;;;;;;;;;5092990;28;20489;-66
2022/08/09 07:43:48;;;;;;;59.40;3.60;;;;;;;;;;5093373;28;20488;-66
2022/08/09 07:46:16;;;;;;;58.67;3.20;;;;;;;;;;5093358;28;20455;-66
2022/08/09 07:48:43;;;;;;;58.40;3.17;;;;;;;;;;5093146;28;20448;-66
2022/08/09 07:51:10;;;;;;;59.20;3.70;;;;;;;;;;5093471;28;20462;-66
2022/08/09 07:53:38;;;;;;;58.37;3.27;;;;;;;;;;5093305;28;20442;-66
2022/08/09 07:56:05;;;;;;;58.80;3.50;;;;;;;;;;5093146;28;20455;-66
2022/08/09 07:58:32;;;;;;;58.97;3.40;;;;;;;;;;5092865;28;20459;-66
2022/08/09 08:00:59;;;;;;;59.20;3.33;;;;;;;;;;5093272;28;20468;-66
2022/08/09 08:03:28;;;;;;;58.37;3.00;;;;;;;;;;5093153;28;20489;-66
2022/08/09 08:05:55;;;;;;;58.80;2.90;;;;;;;;;;5093134;28;20452;-67
2022/08/09 08:08:23;;;;;;;58.77;4.10;;;;;;;;;;5092898;28;20454;-67
2022/08/09 08:10:50;;;;;;;58.47;3.10;;;;;;;;;;5092593;28;20476;-67
2022/08/09 08:13:17;;;;;;;58.60;3.17;;;;;;;;;;5092929;28;20449;-67
2022/08/09 08:15:45;;;;;;;58.27;3.20;;;;;;;;;;5093054;28;20442;-67
2022/08/09 08:18:12;;;;;;;66.27;3.77;;;;;;;;;;5092971;28;20453;-67
2022/08/09 08:20:41;;;;;;;58.67;3.40;;;;;;;;;;5092631;28;20549;-67
2022/08/09 08:23:08;;;;;;;58.83;3.17;;;;;;;;;;5092637;28;20540;-67
2022/08/09 08:25:36;;;;;;;58.50;3.30;;;;;;;;;;5092737;28;20474;-67
2022/08/09 08:28:03;;;;;;;59.00;3.40;;;;;;;;;;5092576;28;20449;-67
2022/08/09 08:30:30;;;;;;;58.10;3.10;;;;;;;;;;5092622;28;20997;-67
2022/08/09 08:32:57;;;;;;;58.77;3.20;;;;;;;;;;5092666;28;20822;-67
2022/08/09 08:35:25;;;;;;;58.37;3.10;;;;;;;;;;5092541;28;20446;-67
2022/08/09 08:37:55;;;;;;;58.17;2.90;;;;;;;;;;5092433;28;20445;-67
2022/08/09 08:40:23;;;;;;;58.20;2.87;;;;;;;;;;5092402;28;20454;-67
2022/08/09 08:42:50;;;;;;;58.27;3.10;;;;;;;;;;5092634;28;20445;-67
2022/08/09 08:45:17;;;;;;;58.60;3.40;;;;;;;;;;5092397;28;20481;-67
2022/08/09 08:47:45;;;;;;;58.27;2.90;;;;;;;;;;5092321;28;20977;-67
2022/08/09 08:50:15;;;;;;;58.40;2.80;;;;;;;;;;5091854;28;20841;-67
2022/08/09 08:52:42;;;;;;;58.37;2.90;;;;;;;;;;5091765;28;20447;-67
2022/08/09 08:55:12;;;;;;;58.27;3.00;;;;;;;;;;5092457;28;20442;-67
2022/08/09 08:57:39;;;;;;;58.60;3.00;;;;;;;;;;5092307;28;20446;-67
2022/08/09 09:00:08;;;;;;;58.60;2.80;;;;;;;;;;5091862;28;20449;-67
2022/08/09 09:02:35;;;;;;;58.17;2.80;;;;;;;;;;5092105;28;20474;-67
2022/08/09 09:05:02;;;;;;;59.00;3.00;;;;;;;;;;5091967;28;20474;-67
2022/08/09 09:07:30;;;;;;;58.27;3.03;;;;;;;;;;5092259;28;20446;-67
2022/08/09 09:09:58;;;;;;;58.60;3.13;;;;;;;;;;5092001;28;20537;-67
2022/08/09 09:12:30;;;;;;;58.50;3.00;;;;;;;;;;5092108;28;20548;-67
2022/08/09 09:14:58;;;;;;;58.40;3.10;;;;;;;;;;5092047;28;20451;-67
2022/08/09 09:17:26;;;;;;;58.43;3.10;;;;;;;;;;5092041;28;20545;-67
2022/08/09 09:19:53;;;;;;;58.30;2.77;;;;;;;;;;5091947;28;20912;-67
2022/08/09 09:22:21;;;;;;;59.90;3.13;;;;;;;;;;5092080;28;20476;-67
2022/08/09 09:24:49;;;;;;;59.00;3.33;;;;;;;;;;5091942;28;20489;-67
2022/08/09 09:27:17;;;;;;;58.67;3.20;;;;;;;;;;5091939;28;20537;-67
2022/08/09 09:29:46;;;;;;;57.93;2.73;;;;;;;;;;5091452;28;20442;-68
2022/08/09 09:32:13;;;;;;;58.50;3.17;;;;;;;;;;5091770;28;20454;-67
2022/08/09 09:34:41;;;;;;;58.20;2.67;;;;;;;;;;5092124;28;20450;-67
2022/08/09 09:37:08;;;;;;;58.70;2.70;;;;;;;;;;5092093;28;20969;-67
2022/08/09 09:39:35;;;;;;;59.70;3.00;;;;;;;;;;5091507;28;20474;-67
2022/08/09 09:42:05;;;;;;;59.10;2.70;;;;;;;;;;5091633;28;20471;-67
2022/08/09 09:44:33;;;;;;;58.30;3.20;;;;;;;;;;5091715;28;20482;-67
2022/08/09 09:47:10;;;;;;;58.93;3.17;;;;;;;;;;5091967;28;20442;-67
2022/08/09 09:49:38;;;;;;;58.57;3.00;;;;;;;;;;5091424;28;20481;-67
2022/08/09 09:52:07;;;;;;;58.27;2.70;;;;;;;;;;5092037;28;20470;-69
2022/08/09 09:54:36;;;;;;;58.90;3.00;;;;;;;;;;5091660;28;20969;-67
2022/08/09 09:57:12;;;;;;;58.30;2.67;;;;;;;;;;5091561;28;20446;-67
2022/08/09 09:59:39;;;;;;;58.17;2.83;;;;;;;;;;5091241;28;20945;-67
2022/08/09 10:02:08;;;;;;;57.97;2.70;;;;;;;;;;5091490;28;20562;-67
2022/08/09 10:04:36;;;;;;;58.20;2.80;;;;;;;;;;5093544;28;20923;-67
2022/08/09 10:07:03;;;;;;;58.00;2.70;;;;;;;;;;5095470;28;20442;-67
2022/08/09 10:09:46;;;;;;;57.87;2.83;;;;;;;;;;5094956;28;20446;-67
2022/08/09 10:12:13;;;;;;;58.40;2.63;;;;;;;;;;5095452;28;20466;-67
2022/08/09 10:14:41;;;;;;;57.93;2.40;;;;;;;;;;5095348;28;20477;-67
2022/08/09 10:17:12;;;;;;;57.93;2.77;;;;;;;;;;5095299;28;20446;-67
2022/08/09 10:19:39;;;;;;;57.97;2.70;;;;;;;;;;5094858;28;20529;-67
2022/08/09 10:22:06;;;;;;;57.77;2.63;;;;;;;;;;5095014;28;20981;-68
2022/08/09 10:24:34;;;;;;;58.10;3.00;;;;;;;;;;5095213;28;20485;-66
2022/08/09 10:27:01;;;;;;;57.30;2.20;;;;;;;;;;5094973;28;20972;-66
2022/08/09 10:29:29;;;;;;;57.27;2.50;;;;;;;;;;5094723;28;20449;-66
2022/08/09 10:31:56;;;;;;;57.20;2.17;;;;;;;;;;5094821;28;20486;-66
2022/08/09 10:34:25;;;;;;;57.90;2.53;;;;;;;;;;5094838;28;20541;-66
2022/08/09 10:36:55;;;;;;;57.77;2.40;;;;;;;;;;5094816;28;20530;-66
2022/08/09 10:39:23;;;;;;;57.20;2.30;;;;;;;;;;5094742;28;20454;-66
2022/08/09 10:41:50;;;;;;;56.80;2.40;;;;;;;;;;5094743;28;20463;-66
2022/08/09 10:44:19;;;;;;;58.57;2.90;;;;;;;;;;5094585;28;20482;-66
2022/08/09 10:46:58;;;;;;;56.57;2.20;;;;;;;;;;5094687;28;20829;-66
2022/08/09 10:49:31;;;;;;;56.90;2.60;;;;;;;;;;5094147;28;20972;-66
2022/08/09 10:52:02;;;;;;;57.17;2.50;;;;;;;;;;5094484;28;20466;-66
2022/08/09 10:54:30;;;;;;;56.57;2.20;;;;;;;;;;5094576;28;20447;-66
2022/08/09 10:57:07;;;;;;;55.97;2.20;;;;;;;;;;5094472;28;20446;-66
2022/08/09 10:59:36;;;;;;;56.97;2.20;;;;;;;;;;5094032;28;20453;-66
2022/08/09 11:02:04;;;;;;;57.20;2.40;;;;;;;;;;5094474;28;20463;-66
2022/08/09 11:04:32;;;;;;;57.80;2.40;;;;;;;;;;5094471;28;20446;-66
2022/08/09 11:07:18;;;;;;;56.70;2.30;;;;;;;;;;5094313;28;20451;-66
2022/08/09 11:09:51;;;;;;;57.30;2.20;;;;;;;;;;5093953;28;20864;-66
2022/08/09 11:12:19;;;;;;;57.07;2.40;;;;;;;;;;5093975;28;20462;-66
2022/08/09 11:14:47;;;;;;;56.83;2.27;;;;;;;;;;5094161;28;20933;-66
2022/08/09 11:17:38;;;;;;;56.90;2.60;;;;;;;;;;5093437;28;20446;-66
2022/08/09 11:20:08;;;;;;;57.00;2.30;;;;;;;;;;5093690;28;20451;-66
2022/08/09 11:22:53;;;;;;;58.17;2.30;;;;;;;;;;5093816;28;20765;-66
2022/08/09 11:25:21;;;;;;;56.07;2.30;;;;;;;;;;5093722;28;20512;-66
2022/08/09 11:27:49;;;;;;;56.80;2.60;;;;;;;;;;5093749;28;20511;-66
2022/08/09 11:30:31;;;;;;;57.40;2.30;;;;;;;;;;5093510;28;20447;-66
2022/08/09 11:33:00;;;;;;;58.70;2.70;;;;;;;;;;5093688;28;20449;-66
2022/08/09 11:35:32;;;;;;;56.47;2.20;;;;;;;;;;5093811;28;20504;-66
2022/08/09 11:38:14;;;;;;;56.90;2.37;;;;;;;;;;5093788;28;20443;-67
2022/08/09 11:40:41;;;;;;;56.60;2.10;;;;;;;;;;5093339;28;20463;-67
2022/08/09 11:43:08;;;;;;;56.70;2.30;;;;;;;;;;5093517;28;20447;-67
2022/08/09 11:45:39;;;;;;;56.87;2.20;;;;;;;;;;5093667;28;20818;-66
2022/08/09 11:48:17;;;;;;;56.40;2.20;;;;;;;;;;5093477;28;20503;-66
2022/08/09 11:53:38;;;;;;;56.33;2.20;;;;;;;;;;5089484;28;20916;-66
2022/08/09 11:56:21;;;;;;;58.03;2.30;;;;;;;;;;5089329;28;20442;-66
2022/08/09 11:58:50;;;;;;;57.00;2.10;;;;;;;;;;5089019;28;20482;-66
2022/08/09 12:01:18;;;;;;;56.37;2.10;;;;;;;;;;5089361;28;20546;-67
2022/08/09 12:03:46;;;;;;;56.67;2.00;;;;;;;;;;5089323;28;20443;-67
2022/08/09 12:06:15;;;;;;;56.50;2.20;;;;;;;;;;5089143;28;20527;-66
2022/08/09 12:08:50;;;;;;;57.13;2.23;;;;;;;;;;5089082;28;20840;-66
2022/08/09 12:11:19;;;;;;;57.10;2.20;;;;;;;;;;5088955;28;20547;-67
2022/08/09 12:13:47;;;;;;;56.73;2.07;;;;;;;;;;5089147;28;20533;-67
2022/08/09 12:16:15;;;;;;;57.03;2.40;;;;;;;;;;5088907;28;20533;-66
2022/08/09 12:18:44;;;;;;;56.57;2.20;;;;;;;;;;5088598;28;20454;-66
2022/08/09 12:21:11;;;;;;;56.70;2.20;;;;;;;;;;5088811;28;20494;-66
2022/08/09 12:23:42;;;;;;;56.67;2.40;;;;;;;;;;5089066;28;20526;-67
2022/08/09 12:26:11;;;;;;;56.80;2.17;;;;;;;;;;5088830;28;20800;-67
2022/08/09 12:28:40;;;;;;;55.93;2.00;;;;;;;;;;5088429;28;21035;-67
2022/08/09 12:31:18;;;;;;;56.70;2.40;;;;;;;;;;5088573;28;20588;-67
2022/08/09 12:33:45;;;;;;;59.33;2.17;;;;;;;;;;5088587;28;20473;-67
2022/08/09 12:36:12;;;;;;;56.60;2.40;;;;;;;;;;5088789;28;20859;-67
2022/08/09 12:38:39;;;;;;;56.73;2.33;;;;;;;;;;5088229;28;20537;-66
2022/08/09 12:41:06;;;;;;;56.47;2.00;;;;;;;;;;5088455;28;20470;-66
2022/08/09 12:43:35;;;;;;;57.67;2.00;;;;;;;;;;5088438;28;20818;-66
2022/08/09 12:46:03;;;;;;;56.90;2.20;;;;;;;;;;5088384;28;20442;-66
2022/08/09 12:48:30;;;;;;;56.50;2.10;;;;;;;;;;5088471;28;20792;-66
2022/08/09 12:50:58;;;;;;;56.40;2.10;;;;;;;;;;5088153;28;20982;-66
2022/08/09 12:53:26;;;;;;;56.37;2.30;;;;;;;;;;5088104;28;20486;-66
2022/08/09 12:55:53;;;;;;;56.37;2.10;;;;;;;;;;5088275;28;20443;-66
2022/08/09 12:58:20;;;;;;;57.10;2.53;;;;;;;;;;5087981;28;21037;-66
2022/08/09 13:00:49;;;;;;;56.70;2.70;;;;;;;;;;5087821;28;20505;-66
2022/08/09 13:03:16;;;;;;;56.67;2.57;;;;;;;;;;5084189;28;20810;-66
2022/08/09 13:05:44;;;;;;;56.17;2.10;;;;;;;;;;5074783;28;20449;-66
2022/08/09 13:08:13;;;;;;;56.67;2.23;;;;;;;;;;5074765;28;20967;-66
2022/08/09 13:10:47;;;;;;;58.27;2.17;;;;;;;;;;5074079;28;20467;-66
2022/08/09 13:13:14;;;;;;;56.53;2.20;;;;;;;;;;5074542;28;20483;-66
2022/08/09 13:15:52;;;;;;;56.43;2.20;;;;;;;;;;5074755;28;20539;-66
2022/08/09 13:18:20;;;;;;;56.97;3.03;;;;;;;;;;5074121;28;21038;-66
2022/08/09 13:20:47;;;;;;;56.87;2.23;;;;;;;;;;5074104;28;20474;-66
2022/08/09 13:23:14;;;;;;;55.90;2.10;;;;;;;;;;5074191;28;20447;-66
2022/08/09 13:25:42;;;;;;;58.73;2.10;;;;;;;;;;5074175;28;20449;-66
2022/08/09 13:28:10;;;;;;;56.40;2.20;;;;;;;;;;5074320;28;20490;-66
2022/08/09 13:30:37;;;;;;;56.40;2.10;;;;;;;;;;5073782;28;20470;-66
2022/08/09 13:33:06;;;;;;;57.13;2.90;;;;;;;;;;5074024;28;20999;-66
2022/08/09 13:35:33;;;;;;;56.30;2.00;;;;;;;;;;5074026;28;20454;-66
2022/08/09 13:38:00;;;;;;;55.97;1.93;;;;;;;;;;5073870;28;20444;-66
2022/08/09 13:40:27;;;;;;;56.57;2.23;;;;;;;;;;5073831;28;20447;-66
2022/08/09 13:42:55;;;;;;;56.37;2.00;;;;;;;;;;5074016;28;20440;-66
2022/08/09 13:45:22;;;;;;;56.10;2.50;;;;;;;;;;5074063;28;20450;-66
2022/08/09 13:47:49;;;;;;;57.77;2.50;;;;;;;;;;5073938;28;20453;-66
2022/08/09 13:50:19;;;;;;;56.37;2.30;;;;;;;;;;5073396;28;20443;-66
2022/08/09 13:52:47;;;;;;;56.50;2.30;;;;;;;;;;5073471;28;20544;-66
2022/08/09 13:55:14;;;;;;;56.70;2.20;;;;;;;;;;5073876;28;20458;-66
2022/08/09 13:57:42;;;;;;;56.53;2.40;;;;;;;;;;5073797;28;20443;-67
2022/08/09 14:00:11;;;;;;;56.17;2.20;;;;;;;;;;5073193;28;20447;-66
2022/08/09 14:02:39;;;;;;;56.07;2.40;;;;;;;;;;5073562;28;20444;-66
2022/08/09 14:05:06;;;;;;;56.80;2.30;;;;;;;;;;5073383;28;20443;-66
2022/08/09 14:07:35;;;;;;;56.50;1.90;;;;;;;;;;5073588;28;20469;-66
2022/08/09 14:10:02;;;;;;;56.23;2.10;;;;;;;;;;5073225;28;20530;-66
2022/08/09 14:12:29;;;;;;;56.33;2.20;;;;;;;;;;5073292;28;20487;-66
2022/08/09 14:14:56;;;;;;;55.60;1.97;;;;;;;;;;5072537;28;20447;-66
2022/08/09 14:17:23;;;;;;;56.50;2.03;;;;;;;;;;5072989;28;20458;-66
2022/08/09 14:19:51;;;;;;;56.13;2.40;;;;;;;;;;5073080;28;20470;-66
2022/08/09 14:22:18;;;;;;;56.70;2.40;;;;;;;;;;5073217;28;20459;-66
2022/08/09 14:24:46;;;;;;;57.10;2.13;;;;;;;;;;5073228;28;20447;-66
2022/08/09 14:27:14;;;;;;;57.17;2.40;;;;;;;;;;5073095;28;20834;-66
2022/08/09 14:29:41;;;;;;;55.93;2.00;;;;;;;;;;5072695;28;20447;-66
2022/08/09 14:32:08;;;;;;;56.90;2.27;;;;;;;;;;5072721;28;20879;-66
2022/08/09 14:34:35;;;;;;;56.27;2.10;;;;;;;;;;5073116;28;20447;-66
2022/08/09 14:37:04;;;;;;;55.93;2.00;;;;;;;;;;5072788;28;20931;-66
2022/08/09 14:39:31;;;;;;;56.30;1.90;;;;;;;;;;5072570;28;20452;-66
2022/08/09 14:42:00;;;;;;;56.37;2.03;;;;;;;;;;5072757;28;20473;-66